Time;durP1;ratioP1;P1;durP2;ratioP2;P2;SDS_P1;SDS_P2;PMS_P1;PMS_P2;Temp;Humidity;BMP_temperature;BMP_pressure;BME280_temperature;BME280_humidity;BME280_pressure;Samples;Min_cycle;Max_cycle;Signal;HPM_P1;HPM_P2
2023/06/16 00:01:31;;;;;;;6.73;5.20;;;;;;;;;;5056940;28;20494;-71
2023/06/16 00:03:58;;;;;;;5.57;4.23;;;;;;;;;;5056847;28;20412;-71
2023/06/16 00:06:27;;;;;;;4.90;4.40;;;;;;;;;;5056329;28;20436;-71
2023/06/16 00:08:54;;;;;;;6.03;5.43;;;;;;;;;;5056483;28;20455;-71
2023/06/16 00:11:20;;;;;;;5.70;4.80;;;;;;;;;;5056721;28;20415;-71
2023/06/16 00:13:47;;;;;;;7.23;5.07;;;;;;;;;;5056418;28;20394;-71
2023/06/16 00:16:19;;;;;;;5.93;4.70;;;;;;;;;;5056788;28;20390;-71
2023/06/16 00:18:45;;;;;;;5.53;4.57;;;;;;;;;;5056382;28;20404;-71
2023/06/16 00:21:14;;;;;;;5.77;4.97;;;;;;;;;;5056165;28;20448;-71
2023/06/16 00:23:40;;;;;;;6.53;4.80;;;;;;;;;;5056299;28;20879;-71
2023/06/16 00:26:06;;;;;;;6.63;5.10;;;;;;;;;;5058060;28;20422;-71
2023/06/16 00:28:32;;;;;;;5.90;4.43;;;;;;;;;;5059893;28;20382;-71
2023/06/16 00:30:59;;;;;;;5.97;4.50;;;;;;;;;;5060315;28;20423;-71
2023/06/16 00:33:26;;;;;;;4.60;4.00;;;;;;;;;;5060754;28;20416;-71
2023/06/16 00:35:52;;;;;;;5.97;5.23;;;;;;;;;;5060671;28;20441;-71
2023/06/16 00:38:18;;;;;;;6.27;4.97;;;;;;;;;;5060417;28;20532;-71
2023/06/16 00:40:44;;;;;;;6.00;5.00;;;;;;;;;;5060338;28;20556;-71
2023/06/16 00:43:10;;;;;;;7.60;4.73;;;;;;;;;;5060130;28;20416;-71
2023/06/16 00:45:36;;;;;;;5.30;4.70;;;;;;;;;;5059808;28;20387;-71
2023/06/16 00:48:02;;;;;;;7.47;4.30;;;;;;;;;;5061167;28;20419;-71
2023/06/16 00:50:28;;;;;;;6.30;5.00;;;;;;;;;;5059758;28;20415;-71
2023/06/16 00:52:54;;;;;;;7.50;5.20;;;;;;;;;;5059904;28;20383;-71
2023/06/16 00:55:21;;;;;;;7.97;4.80;;;;;;;;;;5060251;28;20382;-71
2023/06/16 00:57:49;;;;;;;6.17;5.07;;;;;;;;;;5059691;28;20390;-71
2023/06/16 01:00:16;;;;;;;6.10;4.40;;;;;;;;;;5060339;28;20473;-71
2023/06/16 01:02:44;;;;;;;9.33;5.33;;;;;;;;;;5059775;28;20370;-71
2023/06/16 01:05:10;;;;;;;5.77;4.87;;;;;;;;;;5059533;28;20465;-71
2023/06/16 01:07:43;;;;;;;15.47;6.07;;;;;;;;;;5059668;28;20922;-71
2023/06/16 01:10:14;;;;;;;9.03;4.97;;;;;;;;;;5060400;28;20407;-71
2023/06/16 01:12:53;;;;;;;6.40;5.33;;;;;;;;;;5060194;28;20408;-71
2023/06/16 01:15:21;;;;;;;9.20;5.17;;;;;;;;;;5060134;28;20772;-71
2023/06/16 01:17:48;;;;;;;6.03;5.40;;;;;;;;;;5059182;28;20436;-71
2023/06/16 01:20:33;;;;;;;6.87;5.47;;;;;;;;;;5059951;28;20427;-71
2023/06/16 01:22:59;;;;;;;9.03;5.60;;;;;;;;;;5059865;28;20469;-71
2023/06/16 01:25:28;;;;;;;7.10;5.77;;;;;;;;;;5060398;28;20778;-71
2023/06/16 01:27:55;;;;;;;6.10;5.27;;;;;;;;;;5060479;28;20478;-71
2023/06/16 01:30:22;;;;;;;6.13;5.00;;;;;;;;;;5060062;28;20774;-71
2023/06/16 01:32:54;;;;;;;6.47;5.63;;;;;;;;;;5059406;28;20404;-71
2023/06/16 01:35:21;;;;;;;9.57;5.37;;;;;;;;;;5059819;28;20404;-71
2023/06/16 01:37:48;;;;;;;7.20;5.53;;;;;;;;;;5059915;28;20420;-71
2023/06/16 01:40:14;;;;;;;5.10;4.37;;;;;;;;;;5059491;28;20548;-71
2023/06/16 01:42:40;;;;;;;5.73;5.17;;;;;;;;;;5059523;28;21014;-71
2023/06/16 01:45:07;;;;;;;5.93;5.10;;;;;;;;;;5059460;28;20383;-71
2023/06/16 01:47:34;;;;;;;7.03;5.70;;;;;;;;;;5060047;28;20857;-70
2023/06/16 01:50:00;;;;;;;5.83;5.27;;;;;;;;;;5059394;28;20391;-71
2023/06/16 01:52:26;;;;;;;10.70;6.13;;;;;;;;;;5059592;28;20411;-71
2023/06/16 01:54:52;;;;;;;8.60;5.57;;;;;;;;;;5059302;28;20371;-71
2023/06/16 01:57:18;;;;;;;9.70;5.40;;;;;;;;;;5059308;28;20499;-70
2023/06/16 01:59:45;;;;;;;7.30;5.40;;;;;;;;;;5059583;28;20863;-71
2023/06/16 02:02:15;;;;;;;5.47;4.97;;;;;;;;;;5058817;28;20503;-71
2023/06/16 02:04:44;;;;;;;11.00;5.20;;;;;;;;;;5059331;28;20812;-71
2023/06/16 02:07:13;;;;;;;8.47;5.43;;;;;;;;;;5059151;28;20450;-71
2023/06/16 02:09:39;;;;;;;6.60;4.90;;;;;;;;;;5059100;28;20375;-71
2023/06/16 02:12:06;;;;;;;7.10;6.07;;;;;;;;;;5059368;28;20394;-71
2023/06/16 02:14:35;;;;;;;8.93;5.63;;;;;;;;;;5058826;28;20408;-71
2023/06/16 02:17:05;;;;;;;6.50;4.97;;;;;;;;;;5057899;28;20786;-71
2023/06/16 02:19:33;;;;;;;6.60;5.30;;;;;;;;;;5059265;28;20400;-70
2023/06/16 02:21:59;;;;;;;6.43;5.30;;;;;;;;;;5058724;28;20442;-71
2023/06/16 02:24:25;;;;;;;6.83;5.40;;;;;;;;;;5059026;28;20427;-71
2023/06/16 02:26:51;;;;;;;6.40;4.90;;;;;;;;;;5058654;28;20473;-71
2023/06/16 02:29:17;;;;;;;9.97;4.40;;;;;;;;;;5058181;28;20411;-70
2023/06/16 02:31:50;;;;;;;5.90;5.40;;;;;;;;;;5056912;28;20948;-71
2023/06/16 02:34:17;;;;;;;6.90;4.77;;;;;;;;;;5058805;28;20897;-71
2023/06/16 02:36:43;;;;;;;7.83;5.17;;;;;;;;;;5058019;28;20484;-71
2023/06/16 02:39:10;;;;;;;5.90;5.30;;;;;;;;;;5058338;28;20473;-71
2023/06/16 02:41:36;;;;;;;7.77;5.50;;;;;;;;;;5059041;28;20434;-70
2023/06/16 02:44:03;;;;;;;7.93;4.80;;;;;;;;;;5058240;28;20383;-71
2023/06/16 02:46:29;;;;;;;6.67;5.17;;;;;;;;;;5058262;28;20402;-71
2023/06/16 02:48:55;;;;;;;6.93;5.23;;;;;;;;;;5057264;28;20881;-71
2023/06/16 02:51:21;;;;;;;5.73;5.17;;;;;;;;;;5057274;28;20427;-71
2023/06/16 02:53:47;;;;;;;10.27;5.90;;;;;;;;;;5058401;28;20390;-69
2023/06/16 02:56:14;;;;;;;6.80;5.63;;;;;;;;;;5058381;28;20423;-70
2023/06/16 02:58:40;;;;;;;7.97;5.70;;;;;;;;;;5057781;28;20378;-72
2023/06/16 03:01:06;;;;;;;6.20;5.60;;;;;;;;;;5058117;28;20461;-68
2023/06/16 03:03:36;;;;;;;7.27;6.10;;;;;;;;;;5058412;28;20437;-68
2023/06/16 03:06:02;;;;;;;6.00;5.03;;;;;;;;;;5057909;28;20412;-69
2023/06/16 03:08:28;;;;;;;6.00;5.40;;;;;;;;;;5056742;28;20442;-68
2023/06/16 03:10:54;;;;;;;6.73;5.70;;;;;;;;;;5057498;28;20479;-69
2023/06/16 03:13:20;;;;;;;7.70;5.33;;;;;;;;;;5057851;28;20459;-69
2023/06/16 03:15:46;;;;;;;6.93;6.10;;;;;;;;;;5057704;28;20392;-69
2023/06/16 03:18:12;;;;;;;6.60;5.20;;;;;;;;;;5058062;28;20440;-68
2023/06/16 03:20:40;;;;;;;7.40;5.77;;;;;;;;;;5057946;28;20460;-69
2023/06/16 03:23:06;;;;;;;7.40;6.00;;;;;;;;;;5058267;28;20435;-68
2023/06/16 03:25:32;;;;;;;10.53;5.87;;;;;;;;;;5057353;28;20423;-68
2023/06/16 03:27:58;;;;;;;9.37;5.57;;;;;;;;;;5057384;28;20389;-69
2023/06/16 03:30:25;;;;;;;5.87;5.23;;;;;;;;;;5057521;28;20378;-68
2023/06/16 03:32:51;;;;;;;7.40;5.90;;;;;;;;;;5057279;28;20444;-69
2023/06/16 03:35:17;;;;;;;8.33;5.20;;;;;;;;;;5057694;28;20371;-68
2023/06/16 03:37:43;;;;;;;8.40;5.97;;;;;;;;;;5057275;28;20423;-69
2023/06/16 03:40:10;;;;;;;5.93;5.33;;;;;;;;;;5057462;28;20400;-67
2023/06/16 03:42:36;;;;;;;5.80;5.20;;;;;;;;;;5057769;28;20755;-68
2023/06/16 03:45:03;;;;;;;5.90;5.40;;;;;;;;;;5057199;28;20477;-69
2023/06/16 03:47:29;;;;;;;6.07;5.47;;;;;;;;;;5057743;28;20743;-68
2023/06/16 03:49:55;;;;;;;7.97;5.80;;;;;;;;;;5057046;28;20407;-69
2023/06/16 03:52:22;;;;;;;6.30;5.70;;;;;;;;;;5056823;28;20379;-69
2023/06/16 03:54:48;;;;;;;6.90;5.13;;;;;;;;;;5056120;28;20458;-69
2023/06/16 03:57:14;;;;;;;8.33;6.00;;;;;;;;;;5056686;28;20388;-69
2023/06/16 03:59:41;;;;;;;7.70;6.13;;;;;;;;;;5057468;28;20379;-68
2023/06/16 04:02:07;;;;;;;7.27;5.67;;;;;;;;;;5056176;28;20478;-69
2023/06/16 04:04:36;;;;;;;8.03;6.73;;;;;;;;;;5057117;28;20409;-68
2023/06/16 04:07:03;;;;;;;7.57;6.20;;;;;;;;;;5056982;28;20383;-68
2023/06/16 04:09:30;;;;;;;7.63;6.60;;;;;;;;;;5056698;28;20400;-68
2023/06/16 04:11:56;;;;;;;10.90;6.53;;;;;;;;;;5056346;28;20402;-68
2023/06/16 04:14:22;;;;;;;7.90;6.17;;;;;;;;;;5057404;28;20428;-68
2023/06/16 04:16:48;;;;;;;9.70;6.80;;;;;;;;;;5056948;28;20462;-69
2023/06/16 04:19:17;;;;;;;7.10;5.43;;;;;;;;;;5057116;28;20870;-68
2023/06/16 04:21:43;;;;;;;9.37;5.90;;;;;;;;;;5057299;28;20471;-69
2023/06/16 04:24:10;;;;;;;13.27;6.60;;;;;;;;;;5055830;28;20396;-68
2023/06/16 04:26:37;;;;;;;7.30;5.80;;;;;;;;;;5057505;28;20386;-68
2023/06/16 04:29:04;;;;;;;10.03;7.07;;;;;;;;;;5056964;28;20382;-68
2023/06/16 04:31:32;;;;;;;10.87;6.23;;;;;;;;;;5057330;28;20477;-68
2023/06/16 04:33:58;;;;;;;10.67;7.70;;;;;;;;;;5056654;28;20908;-68
2023/06/16 04:36:25;;;;;;;12.13;7.40;;;;;;;;;;5057098;28;20460;-69
2023/06/16 04:38:54;;;;;;;16.27;8.27;;;;;;;;;;5056732;28;20422;-69
2023/06/16 04:41:20;;;;;;;8.70;7.80;;;;;;;;;;5057328;28;20825;-69
2023/06/16 04:43:46;;;;;;;10.43;7.43;;;;;;;;;;5056267;28;20437;-69
2023/06/16 04:46:12;;;;;;;10.80;7.17;;;;;;;;;;5057197;28;20427;-69
2023/06/16 04:48:38;;;;;;;8.30;7.33;;;;;;;;;;5056965;28;20378;-69
2023/06/16 04:51:04;;;;;;;9.27;8.47;;;;;;;;;;5056345;28;20408;-70
2023/06/16 04:53:31;;;;;;;7.90;7.20;;;;;;;;;;5057264;28;20432;-70
2023/06/16 04:55:57;;;;;;;15.60;8.37;;;;;;;;;;5056750;28;20397;-69
2023/06/16 04:58:23;;;;;;;11.03;9.03;;;;;;;;;;5056396;28;20435;-69
2023/06/16 05:00:50;;;;;;;8.00;6.80;;;;;;;;;;5056615;28;20436;-70
2023/06/16 05:03:16;;;;;;;8.40;7.60;;;;;;;;;;5056579;28;20440;-69
2023/06/16 05:05:43;;;;;;;9.57;8.07;;;;;;;;;;5056368;28;20390;-70
2023/06/16 05:08:09;;;;;;;9.27;8.30;;;;;;;;;;5056504;28;20478;-70
2023/06/16 05:10:35;;;;;;;11.93;8.50;;;;;;;;;;5057309;28;20393;-70
2023/06/16 05:13:01;;;;;;;10.60;8.50;;;;;;;;;;5058466;28;20446;-70
2023/06/16 05:15:28;;;;;;;9.17;8.27;;;;;;;;;;5060789;28;20407;-69
2023/06/16 05:17:54;;;;;;;9.60;8.00;;;;;;;;;;5059433;28;20895;-70
2023/06/16 05:20:20;;;;;;;9.63;8.60;;;;;;;;;;5059814;28;20418;-70
2023/06/16 05:22:46;;;;;;;9.53;8.53;;;;;;;;;;5060249;28;20403;-70
2023/06/16 05:25:12;;;;;;;9.13;8.23;;;;;;;;;;5060362;28;20378;-70
2023/06/16 05:27:38;;;;;;;10.30;8.53;;;;;;;;;;5060101;28;20429;-70
2023/06/16 05:30:05;;;;;;;10.87;8.57;;;;;;;;;;5059615;28;20401;-70
2023/06/16 05:32:31;;;;;;;11.97;7.43;;;;;;;;;;5059330;28;20418;-69
2023/06/16 05:34:57;;;;;;;9.50;7.53;;;;;;;;;;5059640;28;20546;-70
2023/06/16 05:37:23;;;;;;;9.83;8.07;;;;;;;;;;5060497;28;20924;-70
2023/06/16 05:39:49;;;;;;;9.33;8.43;;;;;;;;;;5059199;28;20475;-72
2023/06/16 05:42:16;;;;;;;14.93;8.03;;;;;;;;;;5059727;28;20494;-70
2023/06/16 05:44:42;;;;;;;9.47;8.47;;;;;;;;;;5059975;28;20407;-70
2023/06/16 05:47:08;;;;;;;10.57;8.20;;;;;;;;;;5059684;28;20404;-70
2023/06/16 05:49:35;;;;;;;13.13;7.60;;;;;;;;;;5059344;28;20387;-69
2023/06/16 05:52:02;;;;;;;10.00;8.50;;;;;;;;;;5059862;28;20386;-70
2023/06/16 05:54:28;;;;;;;9.40;7.87;;;;;;;;;;5059389;28;20408;-70
2023/06/16 05:56:55;;;;;;;9.47;8.47;;;;;;;;;;5059143;28;20457;-70
2023/06/16 05:59:21;;;;;;;13.63;7.90;;;;;;;;;;5059880;28;20415;-70
2023/06/16 06:01:51;;;;;;;8.97;7.30;;;;;;;;;;5059481;28;20476;-70
2023/06/16 06:04:20;;;;;;;9.10;8.20;;;;;;;;;;5059050;28;20449;-70
2023/06/16 06:06:46;;;;;;;9.20;7.00;;;;;;;;;;5059151;28;20926;-70
2023/06/16 06:09:12;;;;;;;11.33;7.70;;;;;;;;;;5058884;28;20408;-70
2023/06/16 06:11:39;;;;;;;8.23;6.57;;;;;;;;;;5041083;28;20432;-70
2023/06/16 06:14:05;;;;;;;11.50;7.33;;;;;;;;;;5058933;28;20397;-71
2023/06/16 06:16:31;;;;;;;7.63;6.80;;;;;;;;;;5058811;28;20385;-71
2023/06/16 06:18:57;;;;;;;9.40;6.00;;;;;;;;;;5057936;28;20419;-71
2023/06/16 06:21:23;;;;;;;8.23;6.10;;;;;;;;;;5058747;28;20562;-71
2023/06/16 06:23:49;;;;;;;9.90;6.87;;;;;;;;;;5057796;28;20440;-71
2023/06/16 06:26:15;;;;;;;14.83;7.37;;;;;;;;;;5058472;28;20487;-71
2023/06/16 06:28:41;;;;;;;9.83;6.60;;;;;;;;;;5058685;28;20415;-71
2023/06/16 06:31:07;;;;;;;10.83;6.00;;;;;;;;;;5058278;28;20419;-71
2023/06/16 06:33:33;;;;;;;7.10;6.30;;;;;;;;;;5058680;28;20420;-71
2023/06/16 06:35:59;;;;;;;8.17;6.40;;;;;;;;;;5058107;28;20459;-71
2023/06/16 06:38:25;;;;;;;6.87;6.17;;;;;;;;;;5058712;28;20402;-71
2023/06/16 06:40:51;;;;;;;7.10;6.40;;;;;;;;;;5058074;28;20802;-71
2023/06/16 06:43:17;;;;;;;6.50;5.90;;;;;;;;;;5057573;28;20416;-71
2023/06/16 06:45:48;;;;;;;7.03;5.93;;;;;;;;;;5058392;28;20495;-71
2023/06/16 06:48:14;;;;;;;10.83;6.30;;;;;;;;;;5058383;28;20404;-71
2023/06/16 06:50:40;;;;;;;6.30;5.70;;;;;;;;;;5057821;28;20911;-71
2023/06/16 06:53:06;;;;;;;6.67;5.63;;;;;;;;;;5056985;28;20423;-71
2023/06/16 06:55:32;;;;;;;8.90;6.10;;;;;;;;;;5057917;28;20455;-70
2023/06/16 06:57:58;;;;;;;8.60;5.70;;;;;;;;;;5058098;28;20412;-71
2023/06/16 07:00:24;;;;;;;12.33;5.80;;;;;;;;;;5057607;28;20412;-71
2023/06/16 07:02:50;;;;;;;6.33;5.03;;;;;;;;;;5057603;28;20411;-71
2023/06/16 07:05:16;;;;;;;6.63;5.57;;;;;;;;;;5057875;28;20412;-71
2023/06/16 07:07:42;;;;;;;7.77;5.80;;;;;;;;;;5058672;28;20410;-71
2023/06/16 07:10:10;;;;;;;9.20;5.83;;;;;;;;;;5057823;28;20405;-71
2023/06/16 07:12:36;;;;;;;7.03;5.77;;;;;;;;;;5057616;28;20518;-71
2023/06/16 07:15:02;;;;;;;8.57;5.50;;;;;;;;;;5057110;28;20440;-71
2023/06/16 07:17:30;;;;;;;8.10;5.50;;;;;;;;;;5057408;28;20410;-69
2023/06/16 07:19:56;;;;;;;9.83;5.30;;;;;;;;;;5057377;28;20975;-72
2023/06/16 07:22:22;;;;;;;5.90;5.30;;;;;;;;;;5057768;28;20499;-70
2023/06/16 07:24:48;;;;;;;9.07;5.03;;;;;;;;;;5057414;28;20459;-70
2023/06/16 07:27:14;;;;;;;11.43;5.57;;;;;;;;;;5057622;28;20408;-70
2023/06/16 07:29:40;;;;;;;5.80;4.50;;;;;;;;;;5057498;28;20412;-70
2023/06/16 07:32:06;;;;;;;5.70;4.60;;;;;;;;;;5057056;28;20419;-70
2023/06/16 07:34:33;;;;;;;5.87;5.00;;;;;;;;;;5057927;28;20411;-69
2023/06/16 07:36:59;;;;;;;10.33;4.90;;;;;;;;;;5057251;28;20521;-70
2023/06/16 07:39:25;;;;;;;5.83;4.53;;;;;;;;;;5057830;28;20736;-70
2023/06/16 07:41:51;;;;;;;7.90;6.00;;;;;;;;;;5056595;28;20475;-70
2023/06/16 07:44:17;;;;;;;7.87;4.87;;;;;;;;;;5056986;28;20431;-70
2023/06/16 07:46:46;;;;;;;6.70;4.90;;;;;;;;;;5057155;28;20864;-70
2023/06/16 07:49:15;;;;;;;5.37;4.73;;;;;;;;;;5056514;28;20413;-70
2023/06/16 07:51:41;;;;;;;7.30;5.10;;;;;;;;;;5056499;28;20412;-70
2023/06/16 07:54:08;;;;;;;6.87;5.30;;;;;;;;;;5056392;28;20400;-70
2023/06/16 07:56:34;;;;;;;14.60;5.37;;;;;;;;;;5056749;28;20396;-70
2023/06/16 07:59:00;;;;;;;6.50;4.67;;;;;;;;;;5056281;28;20487;-71
2023/06/16 08:01:26;;;;;;;6.13;4.90;;;;;;;;;;5056094;28;20479;-70
2023/06/16 08:03:52;;;;;;;7.20;5.47;;;;;;;;;;5056000;28;20491;-71
2023/06/16 08:06:18;;;;;;;9.07;5.00;;;;;;;;;;5055766;28;20399;-71
2023/06/16 08:08:45;;;;;;;7.27;5.17;;;;;;;;;;5056646;28;20987;-71
2023/06/16 08:11:11;;;;;;;7.90;4.70;;;;;;;;;;5055899;28;20412;-71
2023/06/16 08:13:37;;;;;;;8.00;4.97;;;;;;;;;;5056400;28;20451;-71
2023/06/16 08:16:05;;;;;;;8.77;5.43;;;;;;;;;;5055542;28;20397;-71
2023/06/16 08:18:31;;;;;;;6.90;4.50;;;;;;;;;;5056284;28;20403;-71
2023/06/16 08:20:57;;;;;;;10.70;5.33;;;;;;;;;;5055975;28;20871;-71
2023/06/16 08:23:23;;;;;;;4.70;3.97;;;;;;;;;;5055557;28;20404;-71
2023/06/16 08:25:50;;;;;;;5.80;3.80;;;;;;;;;;5055536;28;20900;-71
2023/06/16 08:28:16;;;;;;;9.17;4.80;;;;;;;;;;5055660;28;20419;-71
2023/06/16 08:30:42;;;;;;;11.40;4.63;;;;;;;;;;5055362;28;20412;-72
2023/06/16 08:33:09;;;;;;;9.53;4.57;;;;;;;;;;5055209;28;20411;-72
2023/06/16 08:35:35;;;;;;;5.70;4.33;;;;;;;;;;5054312;28;20500;-71
2023/06/16 08:38:01;;;;;;;4.33;3.93;;;;;;;;;;5053577;28;20479;-72
2023/06/16 08:40:27;;;;;;;6.80;4.13;;;;;;;;;;5055308;28;20404;-71
2023/06/16 08:42:54;;;;;;;6.83;3.90;;;;;;;;;;5055112;28;20561;-79
2023/06/16 08:45:20;;;;;;;6.10;3.10;;;;;;;;;;5054063;28;20424;-78
2023/06/16 08:47:46;;;;;;;9.20;3.70;;;;;;;;;;5056720;28;20430;-79
2023/06/16 08:50:19;;;;;;;5.50;3.50;;;;;;;;;;5058616;28;20415;-79
2023/06/16 08:52:46;;;;;;;6.23;4.03;;;;;;;;;;5058248;28;20411;-79
2023/06/16 08:55:13;;;;;;;3.70;3.40;;;;;;;;;;5058380;28;20424;-78
2023/06/16 08:57:46;;;;;;;6.63;3.67;;;;;;;;;;5058578;28;20412;-76
2023/06/16 09:00:13;;;;;;;4.30;3.23;;;;;;;;;;5057903;28;20432;-76
2023/06/16 09:02:41;;;;;;;5.37;3.40;;;;;;;;;;5057680;28;20483;-76
2023/06/16 09:05:07;;;;;;;3.67;3.37;;;;;;;;;;5057572;28;20415;-76
2023/06/16 09:07:35;;;;;;;5.03;3.60;;;;;;;;;;5058345;28;20896;-79
2023/06/16 09:10:01;;;;;;;3.80;3.37;;;;;;;;;;5057430;28;20786;-76
2023/06/16 09:12:28;;;;;;;4.87;3.43;;;;;;;;;;5057332;28;20423;-76
2023/06/16 09:14:54;;;;;;;3.10;2.80;;;;;;;;;;5057180;28;20412;-76
2023/06/16 09:17:29;;;;;;;3.70;3.40;;;;;;;;;;5056875;28;20450;-76
2023/06/16 09:19:55;;;;;;;5.60;3.60;;;;;;;;;;5057133;28;20424;-76
2023/06/16 09:22:29;;;;;;;5.00;3.97;;;;;;;;;;5056981;28;20521;-76
2023/06/16 09:24:55;;;;;;;6.50;4.03;;;;;;;;;;5057712;28;20423;-76
2023/06/16 09:27:22;;;;;;;4.50;3.70;;;;;;;;;;5056438;28;20404;-76
2023/06/16 09:30:07;;;;;;;3.90;3.47;;;;;;;;;;5056662;28;20428;-78
2023/06/16 09:32:37;;;;;;;3.80;3.30;;;;;;;;;;5057603;28;20465;-79
2023/06/16 09:35:18;;;;;;;10.03;3.97;;;;;;;;;;5056501;28;20786;-80
2023/06/16 09:37:45;;;;;;;4.30;3.90;;;;;;;;;;5056690;28;20420;-79
2023/06/16 09:40:11;;;;;;;7.43;4.07;;;;;;;;;;5055944;28;20406;-79
2023/06/16 09:42:38;;;;;;;5.47;3.63;;;;;;;;;;5056714;28;20482;-79
2023/06/16 09:45:12;;;;;;;4.90;3.60;;;;;;;;;;5056175;28;20407;-79
2023/06/16 09:47:40;;;;;;;7.50;3.80;;;;;;;;;;5056089;28;20415;-79
2023/06/16 09:50:07;;;;;;;11.40;4.47;;;;;;;;;;5056159;28;20415;-78
2023/06/16 09:52:37;;;;;;;6.07;4.23;;;;;;;;;;5057773;28;20495;-79
2023/06/16 09:55:03;;;;;;;5.33;3.97;;;;;;;;;;5055813;28;20512;-79
2023/06/16 09:57:29;;;;;;;3.70;3.40;;;;;;;;;;5056205;28;20400;-79
2023/06/16 09:59:55;;;;;;;11.30;4.00;;;;;;;;;;5054504;28;20423;-79
2023/06/16 10:02:23;;;;;;;3.60;3.27;;;;;;;;;;5055679;28;20471;-79
2023/06/16 10:04:53;;;;;;;4.73;3.53;;;;;;;;;;5055742;28;20443;-79
2023/06/16 10:07:20;;;;;;;4.37;3.50;;;;;;;;;;5055452;28;20752;-79
2023/06/16 10:09:50;;;;;;;4.10;3.67;;;;;;;;;;5056267;28;20408;-79
2023/06/16 10:12:16;;;;;;;4.17;3.80;;;;;;;;;;5055312;28;20463;-79
2023/06/16 10:14:43;;;;;;;3.67;3.37;;;;;;;;;;5055757;28;20408;-79
2023/06/16 10:17:13;;;;;;;4.10;3.80;;;;;;;;;;5055339;28;20423;-79
2023/06/16 10:19:41;;;;;;;4.20;3.80;;;;;;;;;;5055760;28;20408;-78
2023/06/16 10:22:07;;;;;;;5.30;3.87;;;;;;;;;;5055096;28;20483;-79
2023/06/16 10:24:33;;;;;;;7.00;4.30;;;;;;;;;;5055279;28;20441;-76
2023/06/16 10:27:00;;;;;;;3.90;3.60;;;;;;;;;;5055572;28;20871;-77
2023/06/16 10:29:28;;;;;;;4.07;3.67;;;;;;;;;;5055004;28;20668;-76
2023/06/16 10:32:07;;;;;;;6.93;3.50;;;;;;;;;;5055078;28;20754;-76
2023/06/16 10:34:38;;;;;;;3.93;3.63;;;;;;;;;;5055110;28;20404;-76
2023/06/16 10:37:04;;;;;;;4.57;3.50;;;;;;;;;;5055265;28;20448;-76
2023/06/16 10:39:34;;;;;;;6.67;3.73;;;;;;;;;;5054863;28;20777;-76
2023/06/16 10:42:00;;;;;;;7.93;4.33;;;;;;;;;;5054476;28;20590;-76
2023/06/16 10:44:30;;;;;;;4.10;3.47;;;;;;;;;;5054187;28;20495;-76
2023/06/16 10:47:06;;;;;;;5.50;3.30;;;;;;;;;;5054699;28;20400;-76
2023/06/16 10:49:32;;;;;;;4.53;3.90;;;;;;;;;;5054438;28;20411;-78
2023/06/16 10:52:02;;;;;;;6.03;3.63;;;;;;;;;;5054831;28;20743;-77
2023/06/16 10:54:37;;;;;;;4.80;4.00;;;;;;;;;;5054454;28;20408;-77
2023/06/16 10:57:06;;;;;;;6.70;4.00;;;;;;;;;;5055136;28;20399;-76
2023/06/16 10:59:51;;;;;;;3.40;3.10;;;;;;;;;;5054322;28;20739;-76
2023/06/16 11:02:23;;;;;;;6.03;4.20;;;;;;;;;;5054310;28;20463;-76
2023/06/16 11:05:08;;;;;;;6.83;4.20;;;;;;;;;;5054454;28;20836;-77
2023/06/16 11:07:39;;;;;;;5.43;4.27;;;;;;;;;;5054375;28;20400;-78
2023/06/16 11:10:05;;;;;;;4.30;3.90;;;;;;;;;;5053870;28;20772;-78
2023/06/16 11:12:31;;;;;;;7.20;4.13;;;;;;;;;;5054162;28;20416;-78
2023/06/16 11:14:57;;;;;;;6.13;3.50;;;;;;;;;;5054511;28;20411;-78
2023/06/16 11:17:25;;;;;;;6.70;3.47;;;;;;;;;;5054214;28;20404;-78
2023/06/16 11:19:53;;;;;;;13.73;3.87;;;;;;;;;;5054335;28;20432;-77
2023/06/16 11:22:27;;;;;;;4.87;3.43;;;;;;;;;;5053484;28;20532;-77
2023/06/16 11:24:52;;;;;;;5.10;3.20;;;;;;;;;;5054062;28;20498;-78
2023/06/16 11:27:18;;;;;;;5.43;4.13;;;;;;;;;;5053652;28;20498;-77
2023/06/16 11:29:44;;;;;;;3.63;3.33;;;;;;;;;;5053764;28;20400;-77
2023/06/16 11:32:10;;;;;;;6.17;3.70;;;;;;;;;;5053027;28;20404;-78
2023/06/16 11:34:37;;;;;;;4.07;3.77;;;;;;;;;;5053083;28;20759;-78
2023/06/16 11:37:03;;;;;;;5.80;3.83;;;;;;;;;;5054455;28;20463;-78
2023/06/16 11:39:29;;;;;;;4.00;3.57;;;;;;;;;;5053139;28;20827;-78
2023/06/16 11:41:56;;;;;;;4.57;3.80;;;;;;;;;;5053420;28;20491;-78
2023/06/16 11:44:22;;;;;;;3.80;3.50;;;;;;;;;;5053777;28;20426;-78
2023/06/16 11:46:48;;;;;;;4.50;4.10;;;;;;;;;;5053886;28;20413;-77
2023/06/16 11:49:14;;;;;;;4.33;3.50;;;;;;;;;;5052942;28;20923;-76
2023/06/16 11:51:40;;;;;;;4.13;3.27;;;;;;;;;;5053533;28;20415;-76
2023/06/16 11:54:06;;;;;;;4.77;3.80;;;;;;;;;;5053279;28;20400;-76
2023/06/16 11:56:33;;;;;;;4.80;4.10;;;;;;;;;;5053305;28;20415;-76
2023/06/16 11:59:03;;;;;;;5.90;3.83;;;;;;;;;;5053475;28;20416;-76
2023/06/16 12:01:29;;;;;;;4.70;4.30;;;;;;;;;;5052946;28;20838;-76
2023/06/16 12:03:56;;;;;;;4.50;3.50;;;;;;;;;;5053252;28;20412;-77
2023/06/16 12:06:23;;;;;;;4.43;4.03;;;;;;;;;;5052078;28;20530;-78
2023/06/16 12:08:49;;;;;;;5.57;4.37;;;;;;;;;;5053313;28;20451;-77
2023/06/16 12:11:27;;;;;;;3.70;3.30;;;;;;;;;;5053144;28;20466;-77
2023/06/16 12:13:54;;;;;;;4.00;3.70;;;;;;;;;;5053584;28;20463;-77
2023/06/16 12:16:20;;;;;;;5.17;3.60;;;;;;;;;;5053095;28;20891;-78
2023/06/16 12:18:49;;;;;;;5.53;3.77;;;;;;;;;;5054662;28;20404;-78
2023/06/16 12:21:25;;;;;;;4.37;3.63;;;;;;;;;;5054876;28;20456;-78
2023/06/16 12:23:58;;;;;;;4.13;3.73;;;;;;;;;;5058510;28;20395;-78
2023/06/16 12:26:24;;;;;;;4.90;3.60;;;;;;;;;;5057297;28;20408;-78
2023/06/16 12:28:57;;;;;;;3.83;3.53;;;;;;;;;;5057369;28;20408;-77
2023/06/16 12:31:28;;;;;;;3.57;3.20;;;;;;;;;;5057439;28;20404;-78
2023/06/16 12:33:54;;;;;;;4.87;4.20;;;;;;;;;;5057776;28;20396;-77
2023/06/16 12:36:20;;;;;;;4.37;3.90;;;;;;;;;;5056860;28;20612;-77
2023/06/16 12:38:47;;;;;;;4.07;3.67;;;;;;;;;;5057211;28;20528;-77
2023/06/16 12:41:13;;;;;;;6.00;4.20;;;;;;;;;;5056936;28;20459;-73
2023/06/16 12:44:05;;;;;;;3.90;3.60;;;;;;;;;;5056713;28;20442;-72
2023/06/16 12:46:31;;;;;;;4.87;3.47;;;;;;;;;;5054018;28;20477;-72
2023/06/16 12:48:57;;;;;;;5.07;3.60;;;;;;;;;;5056025;28;20869;-73
2023/06/16 12:51:23;;;;;;;5.33;3.63;;;;;;;;;;5056570;28;20404;-74
2023/06/16 12:53:49;;;;;;;4.90;3.57;;;;;;;;;;5056792;28;20423;-74
2023/06/16 12:56:15;;;;;;;4.13;3.73;;;;;;;;;;5056202;28;20510;-74
2023/06/16 12:58:41;;;;;;;3.43;3.13;;;;;;;;;;5056333;28;20412;-74
2023/06/16 13:01:10;;;;;;;4.53;4.13;;;;;;;;;;5057075;28;20577;-74
2023/06/16 13:03:36;;;;;;;6.27;4.47;;;;;;;;;;5056924;28;20506;-74
2023/06/16 13:06:02;;;;;;;4.33;3.83;;;;;;;;;;5057046;28;20404;-74
2023/06/16 13:08:29;;;;;;;4.63;3.43;;;;;;;;;;5056502;28;21052;-74
2023/06/16 13:10:55;;;;;;;7.63;3.77;;;;;;;;;;5055670;28;20908;-74
2023/06/16 13:13:21;;;;;;;4.40;3.40;;;;;;;;;;5056714;28;20418;-74
2023/06/16 13:15:47;;;;;;;3.80;3.50;;;;;;;;;;5055558;28;20823;-74
2023/06/16 13:18:13;;;;;;;6.37;3.67;;;;;;;;;;5056571;28;20404;-74
2023/06/16 13:20:39;;;;;;;6.40;3.73;;;;;;;;;;5056786;28;20412;-74
2023/06/16 13:23:05;;;;;;;5.40;3.70;;;;;;;;;;5057104;28;20427;-74
2023/06/16 13:25:31;;;;;;;3.90;3.60;;;;;;;;;;5056468;28;20404;-74
2023/06/16 13:27:57;;;;;;;3.33;3.13;;;;;;;;;;5056623;28;20414;-74
2023/06/16 13:30:23;;;;;;;4.07;3.70;;;;;;;;;;5057681;28;20439;-83
2023/06/16 13:32:49;;;;;;;4.33;3.93;;;;;;;;;;5060939;28;20408;-83
2023/06/16 13:35:15;;;;;;;4.80;3.97;;;;;;;;;;5059123;28;20896;-82
2023/06/16 13:37:41;;;;;;;5.00;4.33;;;;;;;;;;5058189;28;20408;-83
2023/06/16 13:40:08;;;;;;;4.30;3.90;;;;;;;;;;5058670;28;20412;-83
2023/06/16 13:42:34;;;;;;;4.50;4.00;;;;;;;;;;5061571;28;20578;-83
2023/06/16 13:45:00;;;;;;;4.60;4.00;;;;;;;;;;5060401;28;20473;-83
2023/06/16 13:47:26;;;;;;;4.37;3.97;;;;;;;;;;5054910;28;20411;-75
2023/06/16 13:49:52;;;;;;;11.13;10.00;;;;;;;;;;5053967;28;20416;-74
2023/06/16 13:52:18;;;;;;;4.97;3.90;;;;;;;;;;5055649;28;20404;-76
2023/06/16 13:54:44;;;;;;;4.50;4.10;;;;;;;;;;5055597;28;20408;-76
2023/06/16 13:57:11;;;;;;;10.70;4.80;;;;;;;;;;5055075;28;20412;-74
2023/06/16 13:59:37;;;;;;;5.20;4.27;;;;;;;;;;5055229;28;20411;-74
2023/06/16 14:02:03;;;;;;;4.37;3.97;;;;;;;;;;5052687;28;20478;-74
2023/06/16 14:04:29;;;;;;;5.67;4.50;;;;;;;;;;5054956;28;20408;-74
2023/06/16 14:06:56;;;;;;;4.63;3.83;;;;;;;;;;5054956;28;20499;-74
2023/06/16 14:09:22;;;;;;;6.23;4.20;;;;;;;;;;5053359;28;20811;-74
2023/06/16 14:11:48;;;;;;;4.50;3.90;;;;;;;;;;5054596;28;20779;-74
2023/06/16 14:14:14;;;;;;;3.70;3.40;;;;;;;;;;5054851;28;20776;-74
2023/06/16 14:16:40;;;;;;;8.83;3.90;;;;;;;;;;5054878;28;20892;-73
2023/06/16 14:19:06;;;;;;;5.80;4.70;;;;;;;;;;5055065;28;20776;-73
2023/06/16 14:21:32;;;;;;;5.80;4.50;;;;;;;;;;5054849;28;20514;-73
2023/06/16 14:23:58;;;;;;;6.40;4.60;;;;;;;;;;5055223;28;20396;-73
2023/06/16 14:26:24;;;;;;;6.50;4.43;;;;;;;;;;5054740;28;20407;-74
2023/06/16 14:28:51;;;;;;;6.00;4.93;;;;;;;;;;5055066;28;20961;-74
2023/06/16 14:31:17;;;;;;;8.10;4.20;;;;;;;;;;5055034;28;20411;-73
2023/06/16 14:33:43;;;;;;;8.23;4.47;;;;;;;;;;5054691;28;20396;-74
2023/06/16 14:36:09;;;;;;;5.80;4.60;;;;;;;;;;5054830;28;20521;-74
2023/06/16 14:38:35;;;;;;;5.73;5.23;;;;;;;;;;5054530;28;20442;-74
2023/06/16 14:41:01;;;;;;;5.00;4.13;;;;;;;;;;5054864;28;20491;-74